sensor_id;sensor_type;location;lat;lon;timestamp;temperature;humidity
49238;DHT22;35069;47.906;1.892;2022-12-18T00:03:53;-3.60;99.90
49238;DHT22;35069;47.906;1.892;2022-12-18T00:06:20;-3.60;99.90
49238;DHT22;35069;47.906;1.892;2022-12-18T00:08:46;-3.60;99.90
49238;DHT22;35069;47.906;1.892;2022-12-18T00:11:18;-3.70;99.90
49238;DHT22;35069;47.906;1.892;2022-12-18T00:13:45;-3.70;99.90
49238;DHT22;35069;47.906;1.892;2022-12-18T00:16:13;-3.70;99.90
49238;DHT22;35069;47.906;1.892;2022-12-18T00:18:40;-3.70;99.90
49238;DHT22;35069;47.906;1.892;2022-12-18T00:21:08;-3.70;99.90
49238;DHT22;35069;47.906;1.892;2022-12-18T00:23:36;-3.60;99.90
49238;DHT22;35069;47.906;1.892;2022-12-18T00:26:06;-3.60;99.90
49238;DHT22;35069;47.906;1.892;2022-12-18T00:28:32;-3.60;99.90
49238;DHT22;35069;47.906;1.892;2022-12-18T00:31:02;-3.50;99.90
49238;DHT22;35069;47.906;1.892;2022-12-18T00:33:28;-3.50;99.90
49238;DHT22;35069;47.906;1.892;2022-12-18T00:35:54;-3.60;99.90
49238;DHT22;35069;47.906;1.892;2022-12-18T00:38:20;-3.60;99.90
49238;DHT22;35069;47.906;1.892;2022-12-18T00:40:45;-3.60;99.90
49238;DHT22;35069;47.906;1.892;2022-12-18T00:43:11;-3.50;99.90
49238;DHT22;35069;47.906;1.892;2022-12-18T00:45:36;-3.50;99.90
49238;DHT22;35069;47.906;1.892;2022-12-18T00:48:02;-3.60;99.90
49238;DHT22;35069;47.906;1.892;2022-12-18T00:50:28;-3.50;99.90
49238;DHT22;35069;47.906;1.892;2022-12-18T00:52:53;-3.50;99.90
49238;DHT22;35069;47.906;1.892;2022-12-18T00:55:19;-3.50;99.90
49238;DHT22;35069;47.906;1.892;2022-12-18T00:57:45;-3.50;99.90
49238;DHT22;35069;47.906;1.892;2022-12-18T01:00:13;-3.60;99.90
49238;DHT22;35069;47.906;1.892;2022-12-18T01:02:39;-3.60;99.90
49238;DHT22;35069;47.906;1.892;2022-12-18T01:05:05;-3.60;99.90
49238;DHT22;35069;47.906;1.892;2022-12-18T01:07:31;-3.60;99.90
49238;DHT22;35069;47.906;1.892;2022-12-18T01:09:57;-3.70;99.90
49238;DHT22;35069;47.906;1.892;2022-12-18T01:12:23;-3.80;99.90
49238;DHT22;35069;47.906;1.892;2022-12-18T01:14:48;-3.80;99.90
49238;DHT22;35069;47.906;1.892;2022-12-18T01:17:14;-3.70;99.90
49238;DHT22;35069;47.906;1.892;2022-12-18T01:19:40;-3.70;99.90
49238;DHT22;35069;47.906;1.892;2022-12-18T01:22:05;-3.70;99.90
49238;DHT22;35069;47.906;1.892;2022-12-18T01:24:31;-3.70;99.90
49238;DHT22;35069;47.906;1.892;2022-12-18T01:26:57;-3.70;99.90
49238;DHT22;35069;47.906;1.892;2022-12-18T01:29:23;-3.80;99.90
49238;DHT22;35069;47.906;1.892;2022-12-18T01:31:49;-3.80;99.90
49238;DHT22;35069;47.906;1.892;2022-12-18T01:34:14;-3.80;99.90
49238;DHT22;35069;47.906;1.892;2022-12-18T01:36:40;-3.80;99.90
49238;DHT22;35069;47.906;1.892;2022-12-18T01:39:13;-3.80;99.90
49238;DHT22;35069;47.906;1.892;2022-12-18T01:41:40;-3.80;99.90
49238;DHT22;35069;47.906;1.892;2022-12-18T01:47:15;-3.80;99.90
49238;DHT22;35069;47.906;1.892;2022-12-18T01:49:43;-3.80;99.90
49238;DHT22;35069;47.906;1.892;2022-12-18T01:52:09;-3.80;99.90
49238;DHT22;35069;47.906;1.892;2022-12-18T01:54:34;-3.70;99.90
49238;DHT22;35069;47.906;1.892;2022-12-18T01:57:00;-3.70;99.90
49238;DHT22;35069;47.906;1.892;2022-12-18T01:59:27;-3.80;99.90
49238;DHT22;35069;47.906;1.892;2022-12-18T02:01:55;-3.70;99.90
49238;DHT22;35069;47.906;1.892;2022-12-18T02:04:24;-3.70;99.90
49238;DHT22;35069;47.906;1.892;2022-12-18T02:06:57;-3.80;99.90
49238;DHT22;35069;47.906;1.892;2022-12-18T02:09:38;-3.80;99.90
49238;DHT22;35069;47.906;1.892;2022-12-18T02:12:16;-3.80;99.90
49238;DHT22;35069;47.906;1.892;2022-12-18T02:14:59;-3.80;99.90
49238;DHT22;35069;47.906;1.892;2022-12-18T02:17:39;-3.80;99.90
49238;DHT22;35069;47.906;1.892;2022-12-18T02:20:28;-3.80;99.90
49238;DHT22;35069;47.906;1.892;2022-12-18T02:23:23;-3.80;99.90
49238;DHT22;35069;47.906;1.892;2022-12-18T02:28:49;-3.90;99.90
49238;DHT22;35069;47.906;1.892;2022-12-18T02:31:23;-3.90;99.90
49238;DHT22;35069;47.906;1.892;2022-12-18T02:33:53;-3.80;99.90
49238;DHT22;35069;47.906;1.892;2022-12-18T02:36:20;-3.90;99.90
49238;DHT22;35069;47.906;1.892;2022-12-18T02:38:47;-3.80;99.90
49238;DHT22;35069;47.906;1.892;2022-12-18T02:41:14;-3.80;99.90
49238;DHT22;35069;47.906;1.892;2022-12-18T02:43:47;-3.80;99.90
49238;DHT22;35069;47.906;1.892;2022-12-18T02:46:30;-3.80;99.90
49238;DHT22;35069;47.906;1.892;2022-12-18T02:49:04;-3.80;99.90
49238;DHT22;35069;47.906;1.892;2022-12-18T02:52:24;-3.80;99.90
49238;DHT22;35069;47.906;1.892;2022-12-18T02:57:39;-3.90;99.90
49238;DHT22;35069;47.906;1.892;2022-12-18T03:02:59;-3.90;99.90
49238;DHT22;35069;47.906;1.892;2022-12-18T03:06:04;-3.90;99.90
49238;DHT22;35069;47.906;1.892;2022-12-18T03:08:43;-3.90;99.90
49238;DHT22;35069;47.906;1.892;2022-12-18T03:11:11;-3.90;99.90
49238;DHT22;35069;47.906;1.892;2022-12-18T03:13:50;-3.90;99.90
49238;DHT22;35069;47.906;1.892;2022-12-18T03:16:21;-3.90;99.90
49238;DHT22;35069;47.906;1.892;2022-12-18T03:18:58;-3.90;99.90
49238;DHT22;35069;47.906;1.892;2022-12-18T03:21:39;-3.90;99.90
49238;DHT22;35069;47.906;1.892;2022-12-18T03:24:08;-3.90;99.90
49238;DHT22;35069;47.906;1.892;2022-12-18T03:26:35;-3.90;99.90
49238;DHT22;35069;47.906;1.892;2022-12-18T03:29:07;-3.90;99.90
49238;DHT22;35069;47.906;1.892;2022-12-18T03:31:34;-4.00;99.90
49238;DHT22;35069;47.906;1.892;2022-12-18T03:34:14;-3.90;99.90
49238;DHT22;35069;47.906;1.892;2022-12-18T03:36:41;-3.90;99.90
49238;DHT22;35069;47.906;1.892;2022-12-18T03:39:06;-3.90;99.90
49238;DHT22;35069;47.906;1.892;2022-12-18T03:41:37;-3.90;99.90
49238;DHT22;35069;47.906;1.892;2022-12-18T03:44:19;-3.80;99.90
49238;DHT22;35069;47.906;1.892;2022-12-18T03:47:07;-3.80;99.90
49238;DHT22;35069;47.906;1.892;2022-12-18T03:52:18;-3.80;99.90
49238;DHT22;35069;47.906;1.892;2022-12-18T03:54:45;-3.80;99.90
49238;DHT22;35069;47.906;1.892;2022-12-18T03:57:22;-3.80;99.90
49238;DHT22;35069;47.906;1.892;2022-12-18T03:59:54;-3.80;99.90
49238;DHT22;35069;47.906;1.892;2022-12-18T04:02:21;-3.80;99.90
49238;DHT22;35069;47.906;1.892;2022-12-18T04:04:50;-3.80;99.90
49238;DHT22;35069;47.906;1.892;2022-12-18T04:07:17;-3.90;99.90
49238;DHT22;35069;47.906;1.892;2022-12-18T04:09:45;-3.80;99.90
49238;DHT22;35069;47.906;1.892;2022-12-18T04:12:11;-3.80;99.90
49238;DHT22;35069;47.906;1.892;2022-12-18T04:14:37;-3.80;99.90
49238;DHT22;35069;47.906;1.892;2022-12-18T04:17:03;-3.80;99.90
49238;DHT22;35069;47.906;1.892;2022-12-18T04:19:28;-3.80;99.90
49238;DHT22;35069;47.906;1.892;2022-12-18T04:21:54;-3.80;99.90
49238;DHT22;35069;47.906;1.892;2022-12-18T04:24:20;-3.80;99.90
49238;DHT22;35069;47.906;1.892;2022-12-18T04:26:46;-3.70;99.90
49238;DHT22;35069;47.906;1.892;2022-12-18T04:29:11;-3.80;99.90
49238;DHT22;35069;47.906;1.892;2022-12-18T04:31:37;-3.80;99.90
49238;DHT22;35069;47.906;1.892;2022-12-18T04:34:03;-3.80;99.90
49238;DHT22;35069;47.906;1.892;2022-12-18T04:36:29;-3.80;99.90
49238;DHT22;35069;47.906;1.892;2022-12-18T04:38:55;-3.70;99.90
49238;DHT22;35069;47.906;1.892;2022-12-18T04:41:21;-3.70;99.90
49238;DHT22;35069;47.906;1.892;2022-12-18T04:43:47;-3.70;99.90
49238;DHT22;35069;47.906;1.892;2022-12-18T04:46:12;-3.70;99.90
49238;DHT22;35069;47.906;1.892;2022-12-18T04:48:39;-3.70;99.90
49238;DHT22;35069;47.906;1.892;2022-12-18T04:51:05;-3.80;99.90
49238;DHT22;35069;47.906;1.892;2022-12-18T04:53:31;-3.70;99.90
49238;DHT22;35069;47.906;1.892;2022-12-18T04:56:08;-3.70;99.90
49238;DHT22;35069;47.906;1.892;2022-12-18T04:58:35;-3.70;99.90
49238;DHT22;35069;47.906;1.892;2022-12-18T05:01:01;-3.70;99.90
49238;DHT22;35069;47.906;1.892;2022-12-18T05:03:27;-3.70;99.90
49238;DHT22;35069;47.906;1.892;2022-12-18T05:05:53;-3.80;99.90
49238;DHT22;35069;47.906;1.892;2022-12-18T05:08:18;-3.80;99.90
49238;DHT22;35069;47.906;1.892;2022-12-18T05:10:44;-3.80;99.90
49238;DHT22;35069;47.906;1.892;2022-12-18T05:13:10;-3.70;99.90
49238;DHT22;35069;47.906;1.892;2022-12-18T05:15:35;-3.70;99.90
49238;DHT22;35069;47.906;1.892;2022-12-18T05:18:02;-3.60;99.90
49238;DHT22;35069;47.906;1.892;2022-12-18T05:20:28;-3.60;99.90
49238;DHT22;35069;47.906;1.892;2022-12-18T05:22:54;-3.60;99.90
49238;DHT22;35069;47.906;1.892;2022-12-18T05:25:20;-3.70;99.90
49238;DHT22;35069;47.906;1.892;2022-12-18T05:27:46;-3.70;99.90
49238;DHT22;35069;47.906;1.892;2022-12-18T05:30:12;-3.70;99.90
49238;DHT22;35069;47.906;1.892;2022-12-18T05:32:38;-3.70;99.90
49238;DHT22;35069;47.906;1.892;2022-12-18T05:35:06;-3.70;99.90
49238;DHT22;35069;47.906;1.892;2022-12-18T05:37:31;-3.70;99.90
49238;DHT22;35069;47.906;1.892;2022-12-18T05:39:57;-3.60;99.90
49238;DHT22;35069;47.906;1.892;2022-12-18T05:42:23;-3.70;99.90
49238;DHT22;35069;47.906;1.892;2022-12-18T05:44:49;-3.70;99.90
49238;DHT22;35069;47.906;1.892;2022-12-18T05:47:14;-3.70;99.90
49238;DHT22;35069;47.906;1.892;2022-12-18T05:49:40;-3.70;99.90
49238;DHT22;35069;47.906;1.892;2022-12-18T05:52:05;-3.70;99.90
49238;DHT22;35069;47.906;1.892;2022-12-18T05:54:31;-3.70;99.90
49238;DHT22;35069;47.906;1.892;2022-12-18T05:56:57;-3.60;99.90
49238;DHT22;35069;47.906;1.892;2022-12-18T05:59:23;-3.60;99.90
49238;DHT22;35069;47.906;1.892;2022-12-18T06:01:49;-3.60;99.90
49238;DHT22;35069;47.906;1.892;2022-12-18T06:04:15;-3.70;99.90
49238;DHT22;35069;47.906;1.892;2022-12-18T06:06:40;-3.70;99.90
49238;DHT22;35069;47.906;1.892;2022-12-18T06:09:06;-3.70;99.90
49238;DHT22;35069;47.906;1.892;2022-12-18T06:11:39;-3.70;99.90
49238;DHT22;35069;47.906;1.892;2022-12-18T06:14:06;-3.70;99.90
49238;DHT22;35069;47.906;1.892;2022-12-18T06:16:32;-3.70;99.90
49238;DHT22;35069;47.906;1.892;2022-12-18T06:18:58;-3.70;99.90
49238;DHT22;35069;47.906;1.892;2022-12-18T06:21:24;-3.80;99.90
49238;DHT22;35069;47.906;1.892;2022-12-18T06:23:49;-3.80;99.90
49238;DHT22;35069;47.906;1.892;2022-12-18T06:26:15;-3.80;99.90
49238;DHT22;35069;47.906;1.892;2022-12-18T06:28:41;-3.80;99.90
49238;DHT22;35069;47.906;1.892;2022-12-18T06:31:08;-3.80;99.90
49238;DHT22;35069;47.906;1.892;2022-12-18T06:33:34;-3.80;99.90
49238;DHT22;35069;47.906;1.892;2022-12-18T06:36:02;-3.90;99.90
49238;DHT22;35069;47.906;1.892;2022-12-18T06:38:28;-3.90;99.90
49238;DHT22;35069;47.906;1.892;2022-12-18T06:40:54;-3.90;99.90
49238;DHT22;35069;47.906;1.892;2022-12-18T06:43:20;-3.90;99.90
49238;DHT22;35069;47.906;1.892;2022-12-18T06:45:45;-3.90;99.90
49238;DHT22;35069;47.906;1.892;2022-12-18T06:48:14;-4.00;99.90
49238;DHT22;35069;47.906;1.892;2022-12-18T06:50:42;-4.00;99.90
49238;DHT22;35069;47.906;1.892;2022-12-18T06:53:08;-4.00;99.90
49238;DHT22;35069;47.906;1.892;2022-12-18T06:55:33;-4.00;99.90
49238;DHT22;35069;47.906;1.892;2022-12-18T06:57:59;-4.00;99.90
49238;DHT22;35069;47.906;1.892;2022-12-18T07:00:25;-4.00;99.90
49238;DHT22;35069;47.906;1.892;2022-12-18T07:02:50;-4.00;99.90
49238;DHT22;35069;47.906;1.892;2022-12-18T07:05:16;-4.00;99.90
49238;DHT22;35069;47.906;1.892;2022-12-18T07:07:41;-4.00;99.90
49238;DHT22;35069;47.906;1.892;2022-12-18T07:10:07;-4.00;99.90
49238;DHT22;35069;47.906;1.892;2022-12-18T07:12:33;-4.00;99.90
49238;DHT22;35069;47.906;1.892;2022-12-18T07:14:59;-4.00;99.90
49238;DHT22;35069;47.906;1.892;2022-12-18T07:17:24;-4.00;99.90
49238;DHT22;35069;47.906;1.892;2022-12-18T07:19:50;-4.00;99.90
49238;DHT22;35069;47.906;1.892;2022-12-18T07:22:15;-4.00;99.90
49238;DHT22;35069;47.906;1.892;2022-12-18T07:24:41;-4.00;99.90
49238;DHT22;35069;47.906;1.892;2022-12-18T07:27:07;-3.90;99.90
49238;DHT22;35069;47.906;1.892;2022-12-18T07:29:32;-3.90;99.90
49238;DHT22;35069;47.906;1.892;2022-12-18T07:31:58;-3.80;99.90
49238;DHT22;35069;47.906;1.892;2022-12-18T07:34:24;-3.80;99.90
49238;DHT22;35069;47.906;1.892;2022-12-18T07:36:49;-3.80;99.90
49238;DHT22;35069;47.906;1.892;2022-12-18T07:39:15;-3.80;99.90
49238;DHT22;35069;47.906;1.892;2022-12-18T07:41:40;-3.70;99.90
49238;DHT22;35069;47.906;1.892;2022-12-18T07:44:11;-3.70;99.90
49238;DHT22;35069;47.906;1.892;2022-12-18T07:46:37;-3.80;99.90
49238;DHT22;35069;47.906;1.892;2022-12-18T07:49:04;-3.70;99.90
49238;DHT22;35069;47.906;1.892;2022-12-18T07:51:29;-3.80;99.90
49238;DHT22;35069;47.906;1.892;2022-12-18T07:53:56;-3.80;99.90
49238;DHT22;35069;47.906;1.892;2022-12-18T07:56:22;-3.80;99.90
49238;DHT22;35069;47.906;1.892;2022-12-18T07:58:47;-3.70;99.90
49238;DHT22;35069;47.906;1.892;2022-12-18T08:01:13;-3.70;99.90
49238;DHT22;35069;47.906;1.892;2022-12-18T08:03:40;-3.70;99.90
49238;DHT22;35069;47.906;1.892;2022-12-18T08:06:08;-3.60;99.90
49238;DHT22;35069;47.906;1.892;2022-12-18T08:08:34;-3.50;99.90
49238;DHT22;35069;47.906;1.892;2022-12-18T08:11:01;-3.40;99.90
49238;DHT22;35069;47.906;1.892;2022-12-18T08:13:28;-3.30;99.90
49238;DHT22;35069;47.906;1.892;2022-12-18T08:15:58;-3.30;99.90
49238;DHT22;35069;47.906;1.892;2022-12-18T08:18:24;-3.30;99.90
49238;DHT22;35069;47.906;1.892;2022-12-18T08:20:50;-3.20;99.90
49238;DHT22;35069;47.906;1.892;2022-12-18T08:23:15;-3.30;99.90
49238;DHT22;35069;47.906;1.892;2022-12-18T08:25:44;-3.20;99.90
49238;DHT22;35069;47.906;1.892;2022-12-18T08:28:10;-3.20;99.90
49238;DHT22;35069;47.906;1.892;2022-12-18T08:30:35;-3.20;99.90
49238;DHT22;35069;47.906;1.892;2022-12-18T08:33:01;-3.20;99.90
49238;DHT22;35069;47.906;1.892;2022-12-18T08:35:27;-3.10;99.90
49238;DHT22;35069;47.906;1.892;2022-12-18T08:37:53;-3.00;99.90
49238;DHT22;35069;47.906;1.892;2022-12-18T08:40:19;-2.90;99.90
49238;DHT22;35069;47.906;1.892;2022-12-18T08:42:52;-2.80;99.90
49238;DHT22;35069;47.906;1.892;2022-12-18T08:45:36;-2.70;99.90
49238;DHT22;35069;47.906;1.892;2022-12-18T08:48:17;-2.60;99.90
49238;DHT22;35069;47.906;1.892;2022-12-18T08:51:04;-2.50;99.90
49238;DHT22;35069;47.906;1.892;2022-12-18T08:54:07;-2.50;99.90
49238;DHT22;35069;47.906;1.892;2022-12-18T08:59:40;-2.40;99.90
49238;DHT22;35069;47.906;1.892;2022-12-18T09:02:11;-2.30;99.90
49238;DHT22;35069;47.906;1.892;2022-12-18T09:04:42;-2.20;99.90
49238;DHT22;35069;47.906;1.892;2022-12-18T09:07:11;-2.20;99.90
49238;DHT22;35069;47.906;1.892;2022-12-18T09:09:36;-2.20;99.90
49238;DHT22;35069;47.906;1.892;2022-12-18T09:12:02;-2.20;99.90
49238;DHT22;35069;47.906;1.892;2022-12-18T09:15:03;-2.10;99.90
49238;DHT22;35069;47.906;1.892;2022-12-18T09:17:31;-2.20;99.90
49238;DHT22;35069;47.906;1.892;2022-12-18T09:19:56;-2.10;99.90
49238;DHT22;35069;47.906;1.892;2022-12-18T09:22:22;-2.00;99.90
49238;DHT22;35069;47.906;1.892;2022-12-18T09:24:49;-1.90;99.90
49238;DHT22;35069;47.906;1.892;2022-12-18T09:27:14;-1.90;99.90
49238;DHT22;35069;47.906;1.892;2022-12-18T09:29:40;-1.90;99.90
49238;DHT22;35069;47.906;1.892;2022-12-18T09:32:05;-1.80;99.90
49238;DHT22;35069;47.906;1.892;2022-12-18T09:34:31;-1.80;99.90
49238;DHT22;35069;47.906;1.892;2022-12-18T09:36:57;-1.80;99.90
49238;DHT22;35069;47.906;1.892;2022-12-18T09:39:22;-1.80;99.90
49238;DHT22;35069;47.906;1.892;2022-12-18T09:41:55;-1.70;99.90
49238;DHT22;35069;47.906;1.892;2022-12-18T09:44:26;-1.70;99.90
49238;DHT22;35069;47.906;1.892;2022-12-18T09:47:03;-1.60;99.90
49238;DHT22;35069;47.906;1.892;2022-12-18T09:49:32;-1.50;99.90
49238;DHT22;35069;47.906;1.892;2022-12-18T09:52:02;-1.50;99.90
49238;DHT22;35069;47.906;1.892;2022-12-18T09:55:01;-1.40;99.90
49238;DHT22;35069;47.906;1.892;2022-12-18T09:57:31;-1.40;99.90
49238;DHT22;35069;47.906;1.892;2022-12-18T10:00:19;-1.30;99.90
49238;DHT22;35069;47.906;1.892;2022-12-18T10:02:46;-1.20;99.90
49238;DHT22;35069;47.906;1.892;2022-12-18T10:05:37;-1.20;99.90
49238;DHT22;35069;47.906;1.892;2022-12-18T10:16:13;-0.90;99.90
49238;DHT22;35069;47.906;1.892;2022-12-18T10:19:12;-0.80;99.90
49238;DHT22;35069;47.906;1.892;2022-12-18T10:21:55;-0.80;99.90
49238;DHT22;35069;47.906;1.892;2022-12-18T10:24:42;-0.80;99.90
49238;DHT22;35069;47.906;1.892;2022-12-18T10:27:15;-0.80;99.90
49238;DHT22;35069;47.906;1.892;2022-12-18T10:29:43;-0.70;99.90
49238;DHT22;35069;47.906;1.892;2022-12-18T10:32:24;-0.70;99.90
49238;DHT22;35069;47.906;1.892;2022-12-18T10:34:52;-0.60;99.90
49238;DHT22;35069;47.906;1.892;2022-12-18T10:37:21;-0.50;99.90
49238;DHT22;35069;47.906;1.892;2022-12-18T10:40:16;-0.50;99.90
49238;DHT22;35069;47.906;1.892;2022-12-18T10:42:42;-0.40;99.90
49238;DHT22;35069;47.906;1.892;2022-12-18T10:45:15;-0.40;99.90
49238;DHT22;35069;47.906;1.892;2022-12-18T10:47:45;-0.20;99.90
49238;DHT22;35069;47.906;1.892;2022-12-18T10:50:31;-0.10;99.90
49238;DHT22;35069;47.906;1.892;2022-12-18T10:52:59;0.00;99.90
49238;DHT22;35069;47.906;1.892;2022-12-18T10:55:37;0.00;99.90
49238;DHT22;35069;47.906;1.892;2022-12-18T10:58:26;0.10;99.90
49238;DHT22;35069;47.906;1.892;2022-12-18T11:03:42;0.20;99.90
49238;DHT22;35069;47.906;1.892;2022-12-18T11:08:34;0.20;99.90
49238;DHT22;35069;47.906;1.892;2022-12-18T11:11:00;0.30;99.90
49238;DHT22;35069;47.906;1.892;2022-12-18T11:13:28;0.40;99.90
49238;DHT22;35069;47.906;1.892;2022-12-18T11:15:54;0.40;99.90
49238;DHT22;35069;47.906;1.892;2022-12-18T11:18:29;0.50;99.90
49238;DHT22;35069;47.906;1.892;2022-12-18T11:20:58;0.60;99.90
49238;DHT22;35069;47.906;1.892;2022-12-18T11:23:26;0.70;99.90
49238;DHT22;35069;47.906;1.892;2022-12-18T11:26:03;0.70;99.90
49238;DHT22;35069;47.906;1.892;2022-12-18T11:28:38;0.70;99.90
49238;DHT22;35069;47.906;1.892;2022-12-18T11:31:21;0.80;99.90
49238;DHT22;35069;47.906;1.892;2022-12-18T11:34:00;0.90;99.90
49238;DHT22;35069;47.906;1.892;2022-12-18T11:36:32;0.90;99.90
49238;DHT22;35069;47.906;1.892;2022-12-18T11:39:01;0.90;99.90
49238;DHT22;35069;47.906;1.892;2022-12-18T11:42:02;0.90;99.90
49238;DHT22;35069;47.906;1.892;2022-12-18T11:49:41;1.00;99.90
49238;DHT22;35069;47.906;1.892;2022-12-18T11:54:42;1.00;99.90
49238;DHT22;35069;47.906;1.892;2022-12-18T11:57:22;1.10;99.90
49238;DHT22;35069;47.906;1.892;2022-12-18T11:59:55;1.00;99.90
49238;DHT22;35069;47.906;1.892;2022-12-18T12:16:24;1.10;99.90
49238;DHT22;35069;47.906;1.892;2022-12-18T12:21:42;1.20;99.90
49238;DHT22;35069;47.906;1.892;2022-12-18T12:25:01;1.30;99.90
49238;DHT22;35069;47.906;1.892;2022-12-18T12:27:53;1.40;99.90
49238;DHT22;35069;47.906;1.892;2022-12-18T13:20:06;2.00;99.90
49238;DHT22;35069;47.906;1.892;2022-12-18T13:22:50;2.00;99.90
49238;DHT22;35069;47.906;1.892;2022-12-18T13:25:56;2.00;99.90
49238;DHT22;35069;47.906;1.892;2022-12-18T13:28:49;2.10;99.90
49238;DHT22;35069;47.906;1.892;2022-12-18T13:34:38;2.10;99.90
49238;DHT22;35069;47.906;1.892;2022-12-18T13:37:56;2.20;99.90
49238;DHT22;35069;47.906;1.892;2022-12-18T13:59:36;2.40;99.90
49238;DHT22;35069;47.906;1.892;2022-12-18T14:02:16;2.50;99.90
49238;DHT22;35069;47.906;1.892;2022-12-18T14:04:45;2.60;99.90
49238;DHT22;35069;47.906;1.892;2022-12-18T14:07:13;2.60;99.90
49238;DHT22;35069;47.906;1.892;2022-12-18T14:09:42;2.60;99.90
49238;DHT22;35069;47.906;1.892;2022-12-18T14:12:22;2.60;99.90
49238;DHT22;35069;47.906;1.892;2022-12-18T14:15:21;2.70;99.90
49238;DHT22;35069;47.906;1.892;2022-12-18T14:17:47;2.70;99.90
49238;DHT22;35069;47.906;1.892;2022-12-18T14:20:17;2.70;99.90
49238;DHT22;35069;47.906;1.892;2022-12-18T14:22:53;2.70;99.90
49238;DHT22;35069;47.906;1.892;2022-12-18T14:25:24;2.70;99.90
49238;DHT22;35069;47.906;1.892;2022-12-18T14:27:53;2.70;99.90
49238;DHT22;35069;47.906;1.892;2022-12-18T14:30:35;2.70;99.90
49238;DHT22;35069;47.906;1.892;2022-12-18T14:35:32;2.70;99.90
49238;DHT22;35069;47.906;1.892;2022-12-18T14:41:18;2.70;99.90
49238;DHT22;35069;47.906;1.892;2022-12-18T14:43:49;2.80;99.90
49238;DHT22;35069;47.906;1.892;2022-12-18T14:49:02;2.80;99.90
49238;DHT22;35069;47.906;1.892;2022-12-18T14:51:30;2.80;99.90
49238;DHT22;35069;47.906;1.892;2022-12-18T14:54:26;2.80;99.90
49238;DHT22;35069;47.906;1.892;2022-12-18T14:57:01;2.80;99.90
49238;DHT22;35069;47.906;1.892;2022-12-18T14:59:28;2.80;99.90
49238;DHT22;35069;47.906;1.892;2022-12-18T15:02:10;2.80;99.90
49238;DHT22;35069;47.906;1.892;2022-12-18T15:05:03;2.80;99.90
49238;DHT22;35069;47.906;1.892;2022-12-18T15:14:48;2.80;99.90
49238;DHT22;35069;47.906;1.892;2022-12-18T15:18:13;2.80;99.90
49238;DHT22;35069;47.906;1.892;2022-12-18T15:21:19;2.70;99.90
49238;DHT22;35069;47.906;1.892;2022-12-18T15:26:39;2.80;99.90
49238;DHT22;35069;47.906;1.892;2022-12-18T15:29:22;2.80;99.90
49238;DHT22;35069;47.906;1.892;2022-12-18T15:32:19;2.80;99.90
49238;DHT22;35069;47.906;1.892;2022-12-18T15:37:44;2.90;99.90
49238;DHT22;35069;47.906;1.892;2022-12-18T15:40:42;2.90;99.90
49238;DHT22;35069;47.906;1.892;2022-12-18T15:43:08;2.90;99.90
49238;DHT22;35069;47.906;1.892;2022-12-18T15:45:53;2.80;99.90
49238;DHT22;35069;47.906;1.892;2022-12-18T15:48:22;2.80;99.90
49238;DHT22;35069;47.906;1.892;2022-12-18T15:51:14;2.80;99.90
49238;DHT22;35069;47.906;1.892;2022-12-18T15:53:42;2.90;99.90
49238;DHT22;35069;47.906;1.892;2022-12-18T15:56:12;2.90;99.90
49238;DHT22;35069;47.906;1.892;2022-12-18T15:58:56;2.90;99.90
49238;DHT22;35069;47.906;1.892;2022-12-18T16:01:24;2.80;99.90
49238;DHT22;35069;47.906;1.892;2022-12-18T16:03:50;2.70;99.90
49238;DHT22;35069;47.906;1.892;2022-12-18T16:06:18;2.80;99.90
49238;DHT22;35069;47.906;1.892;2022-12-18T16:08:47;2.80;99.90
49238;DHT22;35069;47.906;1.892;2022-12-18T16:11:23;2.90;99.90
49238;DHT22;35069;47.906;1.892;2022-12-18T16:16:42;2.90;99.90
49238;DHT22;35069;47.906;1.892;2022-12-18T16:19:08;2.90;99.90
49238;DHT22;35069;47.906;1.892;2022-12-18T16:21:33;3.00;99.90
49238;DHT22;35069;47.906;1.892;2022-12-18T16:23:59;3.00;99.90
49238;DHT22;35069;47.906;1.892;2022-12-18T16:26:25;3.00;99.90
49238;DHT22;35069;47.906;1.892;2022-12-18T16:28:50;3.00;99.90
49238;DHT22;35069;47.906;1.892;2022-12-18T16:31:16;3.00;99.90
49238;DHT22;35069;47.906;1.892;2022-12-18T16:34:21;3.00;99.90
49238;DHT22;35069;47.906;1.892;2022-12-18T16:36:50;3.10;99.90
49238;DHT22;35069;47.906;1.892;2022-12-18T16:39:17;3.20;99.90
49238;DHT22;35069;47.906;1.892;2022-12-18T16:41:43;3.20;99.90
49238;DHT22;35069;47.906;1.892;2022-12-18T16:44:09;3.20;99.90
49238;DHT22;35069;47.906;1.892;2022-12-18T16:46:36;3.20;99.90
49238;DHT22;35069;47.906;1.892;2022-12-18T16:49:02;3.30;99.90
49238;DHT22;35069;47.906;1.892;2022-12-18T16:51:28;3.30;99.90
49238;DHT22;35069;47.906;1.892;2022-12-18T16:53:55;3.30;99.90
49238;DHT22;35069;47.906;1.892;2022-12-18T16:56:21;3.30;99.90
49238;DHT22;35069;47.906;1.892;2022-12-18T16:58:53;3.40;99.90
49238;DHT22;35069;47.906;1.892;2022-12-18T17:01:19;3.40;99.90
49238;DHT22;35069;47.906;1.892;2022-12-18T17:03:54;3.50;99.90
49238;DHT22;35069;47.906;1.892;2022-12-18T17:06:24;3.50;99.90
49238;DHT22;35069;47.906;1.892;2022-12-18T17:08:56;3.50;99.90
49238;DHT22;35069;47.906;1.892;2022-12-18T17:11:27;3.50;99.90
49238;DHT22;35069;47.906;1.892;2022-12-18T17:13:53;3.60;99.90
49238;DHT22;35069;47.906;1.892;2022-12-18T17:16:20;3.50;99.90
49238;DHT22;35069;47.906;1.892;2022-12-18T17:18:47;3.60;99.90
49238;DHT22;35069;47.906;1.892;2022-12-18T17:21:13;3.60;99.90
49238;DHT22;35069;47.906;1.892;2022-12-18T17:23:40;3.60;99.90
49238;DHT22;35069;47.906;1.892;2022-12-18T17:26:06;3.60;99.90
49238;DHT22;35069;47.906;1.892;2022-12-18T17:28:50;3.60;99.90
49238;DHT22;35069;47.906;1.892;2022-12-18T17:31:18;3.70;99.90
49238;DHT22;35069;47.906;1.892;2022-12-18T17:33:44;3.70;99.90
49238;DHT22;35069;47.906;1.892;2022-12-18T17:36:10;3.70;99.90
49238;DHT22;35069;47.906;1.892;2022-12-18T17:38:37;3.70;99.90
49238;DHT22;35069;47.906;1.892;2022-12-18T17:41:05;3.80;99.90
49238;DHT22;35069;47.906;1.892;2022-12-18T17:43:31;3.80;99.90
49238;DHT22;35069;47.906;1.892;2022-12-18T17:46:06;3.90;99.90
49238;DHT22;35069;47.906;1.892;2022-12-18T17:48:32;3.90;99.90
49238;DHT22;35069;47.906;1.892;2022-12-18T17:51:03;3.90;99.90
49238;DHT22;35069;47.906;1.892;2022-12-18T17:53:29;4.00;99.90
49238;DHT22;35069;47.906;1.892;2022-12-18T17:55:56;4.00;99.90
49238;DHT22;35069;47.906;1.892;2022-12-18T17:58:24;4.00;99.90
49238;DHT22;35069;47.906;1.892;2022-12-18T18:00:50;4.10;99.90
49238;DHT22;35069;47.906;1.892;2022-12-18T18:03:15;4.20;99.90
49238;DHT22;35069;47.906;1.892;2022-12-18T18:05:41;4.10;99.90
49238;DHT22;35069;47.906;1.892;2022-12-18T18:08:07;4.20;99.90
49238;DHT22;35069;47.906;1.892;2022-12-18T18:10:37;4.20;99.90
49238;DHT22;35069;47.906;1.892;2022-12-18T18:13:23;4.30;99.90
49238;DHT22;35069;47.906;1.892;2022-12-18T18:16:08;4.20;99.90
49238;DHT22;35069;47.906;1.892;2022-12-18T18:18:34;4.30;99.90
49238;DHT22;35069;47.906;1.892;2022-12-18T18:21:05;4.30;99.90
49238;DHT22;35069;47.906;1.892;2022-12-18T18:23:31;4.30;99.90
49238;DHT22;35069;47.906;1.892;2022-12-18T18:26:07;4.30;99.90
49238;DHT22;35069;47.906;1.892;2022-12-18T18:28:34;4.30;99.90
49238;DHT22;35069;47.906;1.892;2022-12-18T18:31:04;4.30;99.90
49238;DHT22;35069;47.906;1.892;2022-12-18T18:33:30;4.30;99.90